^^
Datos históricos de la estación: Murcia-Puente Tocinos
Diario Informe para Mayo 05, 2021 Unidades:  Métrico    Ingés   Ambas
Diario Semanal Mensual Anual
  Máxima: Mínima: Promedio:
Temperatura: 26.9 °C 14.2 °C 19.3 °C
Punto de rocio: 14.3 °C 7.9 °C 12.1 °C
Humedad: 85% 32.3% 66%
Velocidad viento: 20.2km/h 0km/h 7.3km/h
Racha viento: 35.4km/h - -
Viento- - Sur
Presión: 1015.9 hPa 1012.7 hPa -
Precipitación: 0.0 mm    
 
 
Tabla de datos para Mayo 05, 2021
Hora Temperatura Punto de rocio Presión Viento Velocidad viento Racha viento Humedad Intensidad lluvia(por hora) Nubes
00:04 16.4 °C 12.7 °C 1015.9 hPa NE 2.9 km/h 6.4 km/h 79% 0.0 mm
00:09 16.4 °C 12.7 °C 1015.9 hPa NE 2.9 km/h 4.8 km/h 79% 0.0 mm
00:14 16.4 °C 12.7 °C 1015.9 hPa NE 2.9 km/h 5.6 km/h 79% 0.0 mm
00:19 16.4 °C 12.7 °C 1015.9 hPa NE 2.5 km/h 4.8 km/h 79% 0.0 mm
00:24 16.4 °C 12.7 °C 1015.9 hPa NNO 2.2 km/h 5.6 km/h 79% 0.0 mm
00:29 16.3 °C 12.7 °C 1015.9 hPa NO 2.8 km/h 5.8 km/h 79% 0.0 mm
00:34 16.2 °C 12.7 °C 1015.8 hPa NO 3.2 km/h 6.4 km/h 79.8% 0.0 mm
00:39 16.2 °C 12.7 °C 1015.8 hPa NO 3 km/h 6.4 km/h 80% 0.0 mm
00:44 16.1 °C 12.7 °C 1015.9 hPa NO 2.9 km/h 5 km/h 80.3% 0.0 mm
00:49 16 °C 12.7 °C 1015.9 hPa North 2.5 km/h 5.6 km/h 81% 0.0 mm
00:54 15.9 °C 12.7 °C 1015.9 hPa North 2.2 km/h 5.6 km/h 81% 0.0 mm
00:59 15.9 °C 12.7 °C 1015.9 hPa NE 2.8 km/h 4.8 km/h 81% 0.0 mm
01:04 15.9 °C 12.7 °C 1015.9 hPa NE 3.2 km/h 3.7 km/h 81% 0.0 mm
01:09 15.9 °C 12.7 °C 1015.9 hPa NE 1.4 km/h 3.2 km/h 81% 0.0 mm
01:14 15.9 °C 12.7 °C 1015.9 hPa Calm   3.7 km/h 81% 0.0 mm
01:19 15.9 °C 12.7 °C 1015.8 hPa Calm   3.7 km/h 81% 0.0 mm
01:24 15.9 °C 12.7 °C 1015.8 hPa Calm   3.9 km/h 81.2% 0.0 mm
01:29 15.8 °C 12.7 °C 1015.8 hPa NO 1.2 km/h 5.8 km/h 82% 0.0 mm
01:34 15.8 °C 12.7 °C 1015.6 hPa ONO 2.2 km/h 6.4 km/h 82% 0.0 mm
01:39 15.7 °C 12.6 °C 1015.6 hPa ONO 2.8 km/h 6.4 km/h 82% 0.0 mm
01:44 15.7 °C 12.6 °C 1015.6 hPa ONO 3.2 km/h 6.4 km/h 82% 0.0 mm
01:49 15.7 °C 12.6 °C 1015.6 hPa ONO 3.2 km/h 5 km/h 82% 0.0 mm
01:54 15.6 °C 12.5 °C 1015.6 hPa ONO 3.2 km/h 7.4 km/h 82.1% 0.0 mm
01:59 15.5 °C 12.6 °C 1015.6 hPa ONO 3 km/h 8 km/h 83% 0.0 mm
02:04 15.4 °C 12.5 °C 1015.4 hPa ONO 2.9 km/h 4.8 km/h 83% 0.0 mm
02:09 15.4 °C 12.5 °C 1015.4 hPa ONO 1.3 km/h 3.2 km/h 83% 0.0 mm
02:14 15.4 °C 12.5 °C 1015.4 hPa Calm   2.9 km/h 83% 0.0 mm
02:19 15.4 °C 12.5 °C 1015.4 hPa Calm   3.7 km/h 83% 0.0 mm
02:24 15.4 °C 12.5 °C 1015.4 hPa Calm   3.2 km/h 83% 0.0 mm
02:29 15.4 °C 12.5 °C 1015.4 hPa Calm     83% 0.0 mm
02:34 15.4 °C 12.5 °C 1015.2 hPa Calm   8.4 km/h 83% 0.0 mm
02:39 15.4 °C 12.4 °C 1015.2 hPa Sur 1.7 km/h 8 km/h 82.4% 0.0 mm
02:44 15.4 °C 12.3 °C 1015.2 hPa SSE 3.2 km/h 10 km/h 82% 0.0 mm
02:49 15.3 °C 12.3 °C 1015.1 hPa SSE 4.6 km/h 11.1 km/h 82% 0.0 mm
02:54 15.3 °C 12.3 °C 1015.1 hPa SSE 5.8 km/h 11.3 km/h 82.4% 0.0 mm
02:59 15.3 °C 12.4 °C 1015.1 hPa Sur 6.9 km/h 11.3 km/h 83% 0.0 mm
03:04 15.3 °C 12.4 °C 1015.0 hPa SSO 7.6 km/h 11.3 km/h 83% 0.0 mm
03:09 15.3 °C 12.3 °C 1015.0 hPa SSO 7.2 km/h 11.3 km/h 82.5% 0.0 mm
03:14 15.3 °C 12.2 °C 1015.0 hPa SO 6.9 km/h 8 km/h 82% 0.0 mm
03:19 15.3 °C 12.2 °C 1014.8 hPa SO 5.6 km/h 9.5 km/h 82% 0.0 mm
03:24 15.4 °C 12.3 °C 1014.8 hPa SSO 4.7 km/h 10 km/h 82% 0.0 mm
03:29 15.3 °C 12.3 °C 1014.8 hPa SSO 5.3 km/h 9.7 km/h 82% 0.0 mm
03:34 15.3 °C 12.2 °C 1014.7 hPa Sur 5.8 km/h 11.1 km/h 81.8% 0.0 mm
03:39 15.3 °C 12.1 °C 1014.7 hPa Sur 6.1 km/h 13 km/h 81% 0.0 mm
03:44 15.3 °C 12.1 °C 1014.7 hPa Sur 6.5 km/h 14.8 km/h 81% 0.0 mm
03:49 15.3 °C 12 °C 1014.6 hPa SSO 8.3 km/h 14.8 km/h 81% 0.0 mm
03:54 15.2 °C 11.9 °C 1014.6 hPa Sur 9.5 km/h 14.5 km/h 81% 0.0 mm
03:59 15.2 °C 11.9 °C 1014.6 hPa Sur 8 km/h 11.3 km/h 81% 0.0 mm
04:04 15.2 °C 11.9 °C 1014.5 hPa Sur 6.9 km/h 9.7 km/h 81% 0.0 mm
04:09 15.2 °C 11.9 °C 1014.5 hPa Sur 6.3 km/h 9.7 km/h 81% 0.0 mm
04:14 15.1 °C 11.9 °C 1014.5 hPa SSE 5.8 km/h 9.5 km/h 81% 0.0 mm
04:19 15.1 °C 11.9 °C 1014.4 hPa SSE 6.1 km/h 11.1 km/h 81% 0.0 mm
04:24 15 °C 11.8 °C 1014.4 hPa SSE 6.5 km/h 11.3 km/h 81% 0.0 mm
04:29 14.9 °C 11.7 °C 1014.5 hPa SE 6.1 km/h 9.7 km/h 81% 0.0 mm
04:34 14.9 °C 11.7 °C 1014.5 hPa Sur 5.8 km/h 8 km/h 81% 0.0 mm
04:39 14.9 °C 11.7 °C 1014.5 hPa SO 4.7 km/h 8 km/h 81% 0.0 mm
04:44 14.9 °C 11.7 °C 1014.5 hPa SO 3.9 km/h 8 km/h 81% 0.0 mm
04:49 14.9 °C 11.7 °C 1014.4 hPa SO 3.9 km/h 8 km/h 81% 0.0 mm
04:54 14.9 °C 11.7 °C 1014.4 hPa SO 3.9 km/h 8 km/h 81% 0.0 mm
04:59 14.9 °C 11.7 °C 1014.4 hPa SO 3.5 km/h 8 km/h 81% 0.0 mm
05:04 14.9 °C 11.7 °C 1014.3 hPa OSO 3.2 km/h 8 km/h 81% 0.0 mm
05:09 14.8 °C 11.7 °C 1014.3 hPa SO 3.6 km/h 8.4 km/h 81.6% 0.0 mm
05:14 14.8 °C 11.8 °C 1014.3 hPa SO 3.9 km/h 10 km/h 82% 0.0 mm
05:19 14.8 °C 11.9 °C 1014.2 hPa SO 4.9 km/h 11.9 km/h 82.9% 0.0 mm
05:24 14.7 °C 11.9 °C 1014.2 hPa SO 5.8 km/h 11.1 km/h 83% 0.0 mm
05:29 14.7 °C 11.8 °C 1014.2 hPa SO 6.8 km/h 11.9 km/h 83% 0.0 mm
05:34 14.7 °C 11.8 °C 1014.1 hPa SO 7.6 km/h 11.9 km/h 83% 0.0 mm
05:39 14.6 °C 11.8 °C 1014.1 hPa SO 7.6 km/h 11.1 km/h 83.4% 0.0 mm
05:44 14.6 °C 11.9 °C 1014.1 hPa SO 7.6 km/h 11.3 km/h 84% 0.0 mm
05:49 14.6 °C 11.9 °C 1013.9 hPa SSO 6.6 km/h 8.4 km/h 84% 0.0 mm
05:54 14.6 °C 11.9 °C 1013.9 hPa SO 5.8 km/h 8 km/h 84% 0.0 mm
05:59 14.6 °C 11.9 °C 1014.0 hPa SO 5.1 km/h 8 km/h 84% 0.0 mm
06:04 14.5 °C 11.8 °C 1014.0 hPa OSO 4.7 km/h 6.4 km/h 84% 0.0 mm
06:09 14.4 °C 11.7 °C 1014.0 hPa SO 4.2 km/h 5.8 km/h 84% 0.0 mm
06:14 14.4 °C 11.7 °C 1014.0 hPa SO 3.9 km/h 9.3 km/h 84% 0.0 mm
06:19 14.4 °C 11.7 °C 1014.0 hPa SO 4.3 km/h 11.1 km/h 84% 0.0 mm
06:24 14.3 °C 11.6 °C 1014.0 hPa SSO 4.7 km/h 11.3 km/h 84% 0.0 mm
06:29 14.3 °C 11.8 °C 1014.0 hPa SO 5.7 km/h 11.3 km/h 85% 0.0 mm
06:34 14.3 °C 11.8 °C 1014.0 hPa SO 6.5 km/h 11.3 km/h 85% 0.0 mm
06:39 14.3 °C 11.8 °C 1014.0 hPa SO 6.7 km/h 11.3 km/h 85% 0.0 mm
06:44 14.2 °C 11.7 °C 1014.1 hPa SO 6.9 km/h 9.7 km/h 85% 0.0 mm
06:49 14.2 °C 11.7 °C 1014.1 hPa SSO 6.3 km/h 11.1 km/h 85% 0.0 mm
06:54 14.2 °C 11.7 °C 1014.1 hPa SSO 5.8 km/h 11.3 km/h 85% 0.0 mm
06:59 14.2 °C 11.7 °C 1014.1 hPa Sur 6.2 km/h 11.9 km/h 85% 0.0 mm
07:04 14.2 °C 11.7 °C 1014.1 hPa Sur 6.5 km/h 11.3 km/h 85% 0.0 mm
07:09 14.2 °C 11.7 °C 1014.1 hPa Sur 7.1 km/h 11.3 km/h 85% 0.0 mm
07:14 14.2 °C 11.7 °C 1014.2 hPa SSO 7.6 km/h 11.3 km/h 85% 0.0 mm
07:19 14.3 °C 11.8 °C 1014.2 hPa SSO 7 km/h 11.3 km/h 85% 0.0 mm
07:24 14.3 °C 11.8 °C 1014.2 hPa SO 6.5 km/h 8.4 km/h 85% 0.0 mm
07:29 14.3 °C 11.8 °C 1014.3 hPa SO 5.4 km/h 10 km/h 85% 0.0 mm
07:34 14.3 °C 11.8 °C 1014.3 hPa SSO 4.7 km/h 11.1 km/h 85% 0.0 mm
07:39 14.4 °C 11.8 °C 1014.3 hPa SSO 5.9 km/h 13 km/h 84.5% 0.0 mm
07:44 14.4 °C 11.8 °C 1014.4 hPa SSO 6.9 km/h 13 km/h 84% 0.0 mm
07:49 14.6 °C 11.9 °C 1014.4 hPa SSO 6.9 km/h 12.9 km/h 84% 0.0 mm
07:54 14.7 °C 11.9 °C 1014.4 hPa Sur 6.9 km/h 11.3 km/h 83.6% 0.0 mm
07:59 14.8 °C 11.9 °C 1014.4 hPa Sur 7.3 km/h 11.3 km/h 83% 0.0 mm
08:04 14.9 °C 11.9 °C 1014.4 hPa Sur 7.6 km/h 11.3 km/h 82.4% 0.0 mm
08:09 15 °C 11.9 °C 1014.4 hPa SO 6.9 km/h 11.3 km/h 82% 0.0 mm
08:14 15.2 °C 12 °C 1014.5 hPa SSO 6.5 km/h 10 km/h 81.3% 0.0 mm
08:19 15.3 °C 12 °C 1014.5 hPa SSO 6.5 km/h 12.2 km/h 80.8% 0.0 mm
08:24 15.4 °C 12 °C 1014.5 hPa SO 6.5 km/h 13 km/h 80% 0.0 mm
08:29 15.6 °C 12 °C 1014.5 hPa OSO 6.7 km/h 12.9 km/h 79.4% 0.0 mm
08:34 15.6 °C 12 °C 1014.5 hPa SO 6.9 km/h 14.8 km/h 79% 0.0 mm
08:39 15.7 °C 12.1 °C 1014.5 hPa SSO 7.7 km/h 14.5 km/h 79% 0.0 mm
08:44 15.8 °C 12 °C 1014.6 hPa SSO 8.4 km/h 11.3 km/h 78.2% 0.0 mm
08:49 16 °C 12.1 °C 1014.6 hPa SSO 7.3 km/h 11.3 km/h 78% 0.0 mm
08:54 16.2 °C 12.1 °C 1014.6 hPa SSO 6.5 km/h 10 km/h 77.1% 0.0 mm
08:59 16.2 °C 12 °C 1014.6 hPa Sur 7.2 km/h 14.8 km/h 76.1% 0.0 mm
09:04 16.2 °C 12 °C 1014.6 hPa SSO 7.6 km/h 14.5 km/h 76% 0.0 mm
09:09 16.3 °C 12.1 °C 1014.6 hPa SSO 7.6 km/h 11.3 km/h 76% 0.0 mm
09:14 16.5 °C 12.3 °C 1014.8 hPa SO 7.6 km/h 9.7 km/h 76% 0.0 mm
09:19 16.7 °C 12.2 °C 1014.8 hPa SO 6.5 km/h 13 km/h 75% 0.0 mm
09:24 16.7 °C 12.2 °C 1014.8 hPa SO 5.8 km/h 14.8 km/h 75% 0.0 mm
09:29 16.8 °C 12.3 °C 1014.8 hPa OSO 6.8 km/h 14.5 km/h 74.6% 0.0 mm
09:34 17 °C 12.3 °C 1014.7 hPa SO 7.6 km/h 14.5 km/h 74% 0.0 mm
09:39 17.1 °C 12.3 °C 1014.7 hPa SO 8.2 km/h 19 km/h 73.2% 0.0 mm
09:44 17.2 °C 12.4 °C 1014.7 hPa SO 8.7 km/h 19.3 km/h 73.5% 0.0 mm
09:49 17.4 °C 12.5 °C 1014.7 hPa SSO 8.5 km/h 14.8 km/h 73.3% 0.0 mm
09:54 17.6 °C 12.5 °C 1014.7 hPa SO 8.4 km/h 16.7 km/h 72.2% 0.0 mm
09:59 17.6 °C 12.5 °C 1014.7 hPa SSO 9 km/h 16.1 km/h 72% 0.0 mm
10:04 17.8 °C 12.5 °C 1014.7 hPa SO 9.5 km/h 13 km/h 71.4% 0.0 mm
10:09 18 °C 12.6 °C 1014.7 hPa SSO 8.5 km/h 12.9 km/h 70.7% 0.0 mm
10:14 18.3 °C 12.6 °C 1014.8 hPa Sur 7.6 km/h 14.8 km/h 69.5% 0.0 mm
10:19 18.4 °C 12.5 °C 1014.8 hPa SSO 8 km/h 14.8 km/h 68.2% 0.0 mm
10:24 18.6 °C 12.4 °C 1014.8 hPa SSO 8.4 km/h 15.6 km/h 67.6% 0.0 mm
10:29 18.7 °C 12.5 °C 1014.8 hPa Sur 8.5 km/h 16.1 km/h 67.8% 0.0 mm
10:34 18.9 °C 12.5 °C 1014.7 hPa Sur 8.7 km/h 12.9 km/h 66.6% 0.0 mm
10:39 19.2 °C 12.6 °C 1014.7 hPa SSO 8.1 km/h 13 km/h 65.9% 0.0 mm
10:44 19.4 °C 12.4 °C 1014.7 hPa SSO 7.6 km/h 13 km/h 64.1% 0.0 mm
10:49 19.6 °C 12.4 °C 1014.6 hPa SO 7.6 km/h 12.9 km/h 63.1% 0.0 mm
10:54 19.8 °C 12.5 °C 1014.6 hPa OSO 7.6 km/h 11.3 km/h 62.9% 0.0 mm
10:59 20.1 °C 12.4 °C 1014.6 hPa OSO 6.1 km/h 14.8 km/h 61.2% 0.0 mm
11:04 20.3 °C 12.4 °C 1014.6 hPa SO 5 km/h 14.5 km/h 60.2% 0.0 mm
11:09 20.6 °C 12.2 °C 1014.6 hPa OSO 5 km/h 11.3 km/h 58.9% 0.0 mm
11:14 20.7 °C 12.1 °C 1014.7 hPa OSO 5 km/h 11.9 km/h 58% 0.0 mm
11:19 20.8 °C 12.3 °C 1014.7 hPa Oeste 5.5 km/h 11.3 km/h 58% 0.0 mm
11:24 21.2 °C 12.3 °C 1014.7 hPa Oeste 5.8 km/h 13 km/h 56.9% 0.0 mm
11:29 21.4 °C 12 °C 1014.7 hPa ONO 5.8 km/h 13 km/h 55% 0.0 mm
11:34 21.5 °C 11.7 °C 1014.7 hPa OSO 5.8 km/h 12.9 km/h 53.6% 0.0 mm
11:39 21.7 °C 11.7 °C 1014.7 hPa SSO 6.2 km/h 11.3 km/h 53% 0.0 mm
11:44 22 °C 11.9 °C 1014.8 hPa SSE 6.5 km/h 8 km/h 52.9% 0.0 mm
11:49 22.4 °C 12.2 °C 1014.8 hPa North 5.4 km/h 8.4 km/h 52.3% 0.0 mm
11:54 22.9 °C 12 °C 1014.8 hPa Este 4.7 km/h 9.5 km/h 50.4% 0.0 mm
11:59 23.1 °C 11.5 °C 1014.8 hPa SSE 4.9 km/h 11.1 km/h 48% 0.0 mm
12:04 23.1 °C 11.5 °C 1014.8 hPa SE 5 km/h 11.3 km/h 48% 0.0 mm
12:09 23.3 °C 11.3 °C 1014.8 hPa ESE 5.4 km/h 11.3 km/h 46.7% 0.0 mm
12:14 23.7 °C 10.8 °C 1014.8 hPa Sur 5.8 km/h 11.1 km/h 44.2% 0.0 mm
12:19 24 °C 10.5 °C 1014.8 hPa SSE 5.1 km/h 11.3 km/h 42.7% 0.0 mm
12:24 24.1 °C 10.3 °C 1014.8 hPa SO 4.7 km/h 11.3 km/h 41.7% 0.0 mm
12:29 24.2 °C 10.1 °C 1014.8 hPa SSO 5.3 km/h 10 km/h 40.8% 0.0 mm
12:34 24.4 °C 9.6 °C 1014.8 hPa Sur 5.8 km/h 13 km/h 39.2% 0.0 mm
12:39 24.4 °C 9.3 °C 1014.8 hPa SO 6.7 km/h 13 km/h 38.2% 0.0 mm
12:44 24.5 °C 9.3 °C 1014.8 hPa Sur 7.6 km/h 12.9 km/h 38.1% 0.0 mm
12:49 24.8 °C 9.4 °C 1014.6 hPa SE 5.1 km/h 8 km/h 37.5% 0.0 mm
12:54 25.2 °C 9.3 °C 1014.6 hPa Oeste 2.9 km/h 10 km/h 36.6% 0.0 mm
12:59 25.2 °C 9.1 °C 1014.6 hPa Oeste 4.1 km/h 13 km/h 36% 0.0 mm
13:04 25.1 °C 9 °C 1014.5 hPa ONO 5 km/h 13 km/h 36% 0.0 mm
13:09 25.1 °C 9 °C 1014.5 hPa ONO 6.5 km/h 12.9 km/h 36% 0.0 mm
13:14 25.2 °C 8.6 °C 1014.5 hPa SSO 7.6 km/h 9.7 km/h 35% 0.0 mm
13:19 25.4 °C 8.4 °C 1014.4 hPa SO 6.1 km/h 9.7 km/h 33.9% 0.0 mm
13:24 25.7 °C 8.2 °C 1014.4 hPa SSO 4.6 km/h 13 km/h 33.1% 0.0 mm
13:29 25.7 °C 8.1 °C 1014.4 hPa OSO 5.6 km/h 12.9 km/h 32.7% 0.0 mm
13:34 25.8 °C 7.9 °C 1014.2 hPa ONO 6.5 km/h 11.1 km/h 32.3% 0.0 mm
13:39 25.9 °C 11.3 °C 1014.2 hPa SSE 6.1 km/h 21.7 km/h 40.3% 0.0 mm
13:44 25.8 °C 13.4 °C 1014.2 hPa ENE 5.8 km/h 22.5 km/h 46.2% 0.0 mm
13:49 25.7 °C 9.8 °C 1014.0 hPa SSE 9.4 km/h 20.9 km/h 36.7% 0.0 mm
13:54 25.9 °C 11 °C 1014.0 hPa SSE 11.9 km/h 20.9 km/h 39.5% 0.0 mm
13:59 25.9 °C 9.6 °C 1014.0 hPa Este 10.7 km/h 16.7 km/h 35.8% 0.0 mm
14:04 26 °C 11.7 °C 1013.9 hPa ESE 10 km/h 27.8 km/h 41% 0.0 mm
14:09 26 °C 13.6 °C 1013.9 hPa Este 11.3 km/h 27.4 km/h 46.4% 0.0 mm
14:14 25.8 °C 13 °C 1013.9 hPa ENE 12.2 km/h 24.1 km/h 45.1% 0.0 mm
14:19 25.8 °C 12.8 °C 1013.7 hPa Este 12.7 km/h 22.5 km/h 44.5% 0.0 mm
14:24 26.1 °C 12.4 °C 1013.7 hPa Este 13 km/h 22.5 km/h 42.4% 0.0 mm
14:29 26.2 °C 12.6 °C 1013.7 hPa Este 10.7 km/h 20.4 km/h 42.9% 0.0 mm
14:34 26.2 °C 12.5 °C 1013.5 hPa Este 8.7 km/h 20.9 km/h 42.8% 0.0 mm
14:39 26 °C 12.5 °C 1013.5 hPa Este 10.1 km/h 20.9 km/h 43% 0.0 mm
14:44 26 °C 12.1 °C 1013.5 hPa Este 11.1 km/h 20.4 km/h 42.1% 0.0 mm
14:49 25.9 °C 12 °C 1013.5 hPa ESE 11.7 km/h 20.9 km/h 41.9% 0.0 mm
14:54 25.9 °C 11.7 °C 1013.5 hPa Este 12.2 km/h 20.9 km/h 41.2% 0.0 mm
14:59 26.2 °C 11.7 °C 1013.5 hPa ENE 10 km/h 16.1 km/h 40.5% 0.0 mm
15:04 26.4 °C 12.4 °C 1013.4 hPa ENE 8.4 km/h 14.8 km/h 41.8% 0.0 mm
15:09 26.7 °C 12.4 °C 1013.4 hPa ESE 8.5 km/h 22.5 km/h 41% 0.0 mm
15:14 26.7 °C 11.5 °C 1013.4 hPa SE 8.7 km/h 22.5 km/h 38.8% 0.0 mm
15:19 26.6 °C 12.1 °C 1013.2 hPa SE 10 km/h 24.1 km/h 40.6% 0.0 mm
15:24 26.6 °C 12.5 °C 1013.2 hPa SSE 11.1 km/h 24.1 km/h 41.8% 0.0 mm
15:29 26.6 °C 12.1 °C 1013.2 hPa ESE 12.3 km/h 22.2 km/h 40.6% 0.0 mm
15:34 26.6 °C 11.9 °C 1013.1 hPa Sur 13 km/h 22.5 km/h 40% 0.0 mm
15:39 26.7 °C 12.6 °C 1013.1 hPa SSO 10.5 km/h 23.3 km/h 41.8% 0.0 mm
15:44 26.9 °C 13 °C 1013.1 hPa ESE 8.7 km/h 24.1 km/h 42.3% 0.0 mm
15:49 26.9 °C 12.9 °C 1012.9 hPa Este 11.4 km/h 24.1 km/h 42% 0.0 mm
15:54 26.8 °C 12.8 °C 1012.9 hPa Este 13 km/h 22.5 km/h 41.9% 0.0 mm
15:59 26.8 °C 12.6 °C 1012.9 hPa SE 12.3 km/h 22.5 km/h 41.5% 0.0 mm
16:04 26.6 °C 12.7 °C 1012.9 hPa SSE 11.9 km/h 19.3 km/h 42.2% 0.0 mm
16:09 26.6 °C 12.8 °C 1012.9 hPa ESE 9.1 km/h 22.5 km/h 42.5% 0.0 mm
16:14 26.5 °C 13.3 °C 1012.9 hPa ESE 6.5 km/h 27.8 km/h 44.2% 0.0 mm
16:19 26.3 °C 13.6 °C 1012.9 hPa ESE 11.5 km/h 27.8 km/h 45.6% 0.0 mm
16:24 26.2 °C 14.1 °C 1012.9 hPa ESE 15.6 km/h 30.6 km/h 47.2% 0.0 mm
16:29 25.9 °C 13.9 °C 1012.9 hPa ESE 16.9 km/h 30.9 km/h 47.6% 0.0 mm
16:34 25.7 °C 14.1 °C 1012.7 hPa ESE 18 km/h 32.2 km/h 49% 0.0 mm
16:39 25.4 °C 14.3 °C 1012.7 hPa ESE 18.2 km/h 32.2 km/h 50% 0.0 mm
16:44 25.1 °C 14 °C 1012.8 hPa ESE 18.4 km/h 30.6 km/h 50% 0.0 mm
16:49 25.2 °C 14 °C 1012.8 hPa ESE 19.4 km/h 30.6 km/h 50% 0.0 mm
16:54 25.3 °C 14 °C 1012.8 hPa ESE 20.1 km/h 33.3 km/h 49.4% 0.0 mm
16:55 25.4 °C 13.9 °C 1012.8 hPa ESE 20.2 km/h 33.8 km/h 49% 0.0 mm
17:14 25.3 °C 13.7 °C 1012.9 hPa ESE 19 km/h 30.6 km/h 48.6% 0.0 mm
17:19 25.4 °C 13.9 °C 1012.9 hPa ESE 18.5 km/h 30.6 km/h 49% 0.0 mm
17:24 25.4 °C 13.9 °C 1012.9 hPa ESE 18 km/h 35.2 km/h 49% 0.0 mm
17:29 25.3 °C 13.8 °C 1012.9 hPa ESE 18.6 km/h 35.4 km/h 49% 0.0 mm
17:34 25.2 °C 13.9 °C 1012.9 hPa ESE 19 km/h 35.4 km/h 49.4% 0.0 mm
17:39 25.2 °C 13.9 °C 1012.9 hPa ESE 19.5 km/h 29.6 km/h 49.7% 0.0 mm
17:44 25.1 °C 14 °C 1013.0 hPa ESE 19.8 km/h 29.6 km/h 50% 0.0 mm
17:49 24.9 °C 14 °C 1013.0 hPa ESE 19.1 km/h 32.3 km/h 50.9% 0.0 mm
17:54 24.8 °C 13.9 °C 1013.0 hPa ESE 18.4 km/h 33.8 km/h 51% 0.0 mm
17:59 24.6 °C 14 °C 1013.1 hPa ESE 18.4 km/h 33.8 km/h 51.9% 0.0 mm
Murcia-Puente Tocinos, España
Compliments of Weather Underground - 2.5 mb

La estación de MeteoMurcia.com, publica sus datos en los siguientes proyectos:

Weather Underground PWS IMURCIAP2 Meteoclimatic www.awekas.at

W3Counter
Web Analytics